Map

Track Data

SID SEASON NUMBER BASIN SUBBASIN NAME ISO_TIME NATURE LAT LON WMO_WIND WMO_PRES WMO_AGENCY TRACK_TYPE DIST2LAND LANDFALL IFLAG USA_AGENCY USA_ATCF_ID USA_LAT USA_LON USA_RECORD USA_STATUS USA_WIND USA_PRES USA_SSHS USA_R34_NE USA_R34_SE USA_R34_SW USA_R34_NW USA_R50_NE USA_R50_SE USA_R50_SW USA_R50_NW USA_R64_NE USA_R64_SE USA_R64_SW USA_R64_NW USA_POCI USA_ROCI USA_RMW USA_EYE TOKYO_LAT TOKYO_LON TOKYO_GRADE TOKYO_WIND TOKYO_PRES TOKYO_R50_DIR TOKYO_R50_LONG TOKYO_R50_SHORT TOKYO_R30_DIR TOKYO_R30_LONG TOKYO_R30_SHORT TOKYO_LAND CMA_LAT CMA_LON CMA_CAT CMA_WIND CMA_PRES HKO_LAT HKO_LON HKO_CAT HKO_WIND HKO_PRES NEWDELHI_LAT NEWDELHI_LON NEWDELHI_GRADE NEWDELHI_WIND NEWDELHI_PRES NEWDELHI_CI NEWDELHI_DP NEWDELHI_POCI REUNION_LAT REUNION_LON REUNION_TYPE REUNION_WIND REUNION_PRES REUNION_TNUM REUNION_CI REUNION_RMW REUNION_R34_NE REUNION_R34_SE REUNION_R34_SW REUNION_R34_NW REUNION_R50_NE REUNION_R50_SE REUNION_R50_SW REUNION_R50_NW REUNION_R64_NE REUNION_R64_SE REUNION_R64_SW REUNION_R64_NW BOM_LAT BOM_LON BOM_TYPE BOM_WIND BOM_PRES BOM_TNUM BOM_CI BOM_RMW BOM_R34_NE BOM_R34_SE BOM_R34_SW BOM_R34_NW BOM_R50_NE BOM_R50_SE BOM_R50_SW BOM_R50_NW BOM_R64_NE BOM_R64_SE BOM_R64_SW BOM_R64_NW BOM_ROCI BOM_POCI BOM_EYE BOM_POS_METHOD BOM_PRES_METHOD NADI_LAT NADI_LON NADI_CAT NADI_WIND NADI_PRES WELLINGTON_LAT WELLINGTON_LON WELLINGTON_WIND WELLINGTON_PRES DS824_LAT DS824_LON DS824_STAGE DS824_WIND DS824_PRES TD9636_LAT TD9636_LON TD9636_STAGE TD9636_WIND TD9636_PRES TD9635_LAT TD9635_LON TD9635_WIND TD9635_PRES TD9635_ROCI NEUMANN_LAT NEUMANN_LON NEUMANN_CLASS NEUMANN_WIND NEUMANN_PRES MLC_LAT MLC_LON MLC_CLASS MLC_WIND MLC_PRES USA_GUST BOM_GUST BOM_GUST_PER REUNION_GUST REUNION_GUST_PER USA_SEAHGT USA_SEARAD_NE USA_SEARAD_SE USA_SEARAD_SW USA_SEARAD_NW STORM_SPEED STORM_DIR
1993178N14265 1993 37 EP MM NOT_NAMED 1993-06-27 00:00:00 TS 13.9000 -95.3000 25 hurdat_epa main 223 194 O_____________ hurdat_epa EP031993 13.9000 -95.3000 TD 25 -1 6 317
1993178N14265 1993 37 EP MM NOT_NAMED 1993-06-27 03:00:00 TS 14.1075 -95.4999 main 194 165 P_____________ EP031993 14.1075 -95.4999 TD 25 -1 6 316
1993178N14265 1993 37 EP MM NOT_NAMED 1993-06-27 06:00:00 TS 14.3000 -95.7000 25 hurdat_epa main 165 138 O_____________ hurdat_epa EP031993 14.3000 -95.7000 TD 25 -1 5 313
1993178N14265 1993 37 EP MM NOT_NAMED 1993-06-27 09:00:00 TS 14.4650 -95.9000 main 138 123 P_____________ EP031993 14.4650 -95.9000 TD 27 -1 5 308
1993178N14265 1993 37 EP MM NOT_NAMED 1993-06-27 12:00:00 TS 14.6000 -96.1000 30 hurdat_epa main 123 105 O_____________ hurdat_epa EP031993 14.6000 -96.1000 TD 30 -1 5 303
1993178N14265 1993 37 EP MM NOT_NAMED 1993-06-27 15:00:00 TS 14.7075 -96.2925 main 105 90 P_____________ EP031993 14.7075 -96.2925 TD 30 -1 4 297
1993178N14265 1993 37 EP MM NOT_NAMED 1993-06-27 18:00:00 TS 14.8000 -96.5000 30 hurdat_epa main 90 78 O_____________ hurdat_epa EP031993 14.8000 -96.5000 TD 30 -1 4 297
1993178N14265 1993 37 EP MM NOT_NAMED 1993-06-27 21:00:00 TS 14.8997 -96.6901 main 79 70 P_____________ EP031993 14.8997 -96.6901 TD 30 -1 5 292
1993178N14265 1993 37 EP MM NOT_NAMED 1993-06-28 00:00:00 TS 15.0000 -97.0000 30 hurdat_epa main 79 79 O_____________ hurdat_epa EP031993 15.0000 -97.0000 TD 30 -1 8 283
1993178N14265 1993 37 EP MM NOT_NAMED 1993-06-28 03:00:00 TS 15.0850 -97.5252 main 94 92 P_____________ EP031993 15.0850 -97.5252 TD 30 -1 12 280
1993178N14265 1993 37 EP MM NOT_NAMED 1993-06-28 06:00:00 TS 15.2000 -98.2000 30 hurdat_epa main 99 99 O_____________ hurdat_epa EP031993 15.2000 -98.2000 TD 30 -1 14 283
1993178N14265 1993 37 EP MM NOT_NAMED 1993-06-28 09:00:00 TS 15.3847 -98.9051 main 105 105 P_____________ EP031993 15.3847 -98.9051 TD 30 -1 15 285
1993178N14265 1993 37 EP MM NOT_NAMED 1993-06-28 12:00:00 TS 15.6000 -99.7000 30 hurdat_epa main 123 113 O_____________ hurdat_epa EP031993 15.6000 -99.7000 TD 30 -1 17 285
1993178N14265 1993 37 EP MM NOT_NAMED 1993-06-28 15:00:00 TS 15.8075 -100.585 main 138 138 P_____________ EP031993 15.8075 -100.585 TD 30 -1 18 283
1993178N14265 1993 37 EP MM NOT_NAMED 1993-06-28 18:00:00 TS 16.0000 -101.500 30 hurdat_epa main 151 151 O_____________ hurdat_epa EP031993 16.0000 -101.500 TD 30 -1 17 281
1993178N14265 1993 37 EP MM NOT_NAMED 1993-06-28 21:00:00 TS 16.1496 -102.358 main 192 183 P_____________ EP031993 16.1496 -102.358 TD 27 -1 17 280
1993178N14265 1993 37 EP MM NOT_NAMED 1993-06-29 00:00:00 TS 16.3000 -103.200 25 hurdat_epa main 200 200 O_____________ hurdat_epa EP031993 16.3000 -103.200 TD 25 -1 17 282
1993178N14265 1993 37 EP MM NOT_NAMED 1993-06-29 03:00:00 TS 16.4925 -104.080 main 211 211 P_____________ EP031993 16.4925 -104.080 TD 25 -1 17 284
1993178N14265 1993 37 EP MM NOT_NAMED 1993-06-29 06:00:00 TS 16.7000 -104.900 25 hurdat_epa main 232 232 O_____________ hurdat_epa EP031993 16.7000 -104.900 TD 25 -1 15 285
1993178N14265 1993 37 EP MM NOT_NAMED 1993-06-29 09:00:00 TS 16.8998 -105.618 main 270 267 P_____________ EP031993 16.8998 -105.618 TD 25 -1 13 288
1993178N14265 1993 37 EP MM NOT_NAMED 1993-06-29 12:00:00 TS 17.1000 -106.200 25 hurdat_epa main 277 274 O_____________ hurdat_epa EP031993 17.1000 -106.200 TD 25 -1 11 292
1993178N14265 1993 37 EP MM NOT_NAMED 1993-06-29 15:00:00 TS 17.2923 -106.660 main 292 291 P_____________ EP031993 17.2923 -106.660 TD 25 -1 9 298
1993178N14265 1993 37 EP MM NOT_NAMED 1993-06-29 18:00:00 TS 17.5000 -107.000 25 hurdat_epa main 299 299 O_____________ hurdat_epa EP031993 17.5000 -107.000 TD 25 -1 7 307
1993178N14265 1993 37 EP MM NOT_NAMED 1993-06-29 21:00:00 TS 17.7349 -107.273 main 307 299 P_____________ EP031993 17.7349 -107.273 TD 25 -1 7 316
1993178N14265 1993 37 EP MM NOT_NAMED 1993-06-30 00:00:00 TS 18.0000 -107.500 25 hurdat_epa main 299 299 O_____________ hurdat_epa EP031993 18.0000 -107.500 TD 25 -1 7 318
1993178N14265 1993 37 EP MM NOT_NAMED 1993-06-30 03:00:00 TS 18.2625 -107.765 main 305 300 P_____________ EP031993 18.2625 -107.765 TD 25 -1 8 322
1993178N14265 1993 37 EP MM NOT_NAMED 1993-06-30 06:00:00 TS 18.6000 -108.000 25 hurdat_epa main 305 294 O_____________ hurdat_epa EP031993 18.6000 -108.000 TD 25 -1 9 335
1993178N14265 1993 37 EP MM NOT_NAMED 1993-06-30 09:00:00 TS 19.0925 -108.180 main 299 284 P_____________ EP031993 19.0925 -108.180 TD 27 -1 10 344
1993178N14265 1993 37 EP MM NOT_NAMED 1993-06-30 12:00:00 TS 19.6000 -108.300 30 hurdat_epa main 286 277 O_____________ hurdat_epa EP031993 19.6000 -108.300 TD 30 -1 9 349
1993178N14265 1993 37 EP MM NOT_NAMED 1993-06-30 15:00:00 TS 19.9650 -108.358 main 285 281 P_____________ EP031993 19.9650 -108.358 TD 30 -1 7 352
1993178N14265 1993 37 EP MM NOT_NAMED 1993-06-30 18:00:00 TS 20.3000 -108.400 30 hurdat_epa main 281 280 O_____________ hurdat_epa EP031993 20.3000 -108.400 TD 30 -1 7 350
1993178N14265 1993 37 EP MM NOT_NAMED 1993-06-30 21:00:00 TS 20.6925 -108.500 main 280 236 P_____________ EP031993 20.6925 -108.500 TD 30 -1 8 347
1993178N14265 1993 37 EP MM NOT_NAMED 1993-07-01 00:00:00 TS 21.1000 -108.600 30 hurdat_epa main 236 199 O_____________ hurdat_epa EP031993 21.1000 -108.600 TD 30 -1 8 351
1993178N14265 1993 37 EP MM NOT_NAMED 1993-07-01 03:00:00 TS 21.4925 -108.643 main 199 158 P_____________ EP031993 21.4925 -108.643 TD 30 -1 8 353
1993178N14265 1993 37 EP MM NOT_NAMED 1993-07-01 06:00:00 TS 21.9000 -108.700 30 hurdat_epa main 158 121 O_____________ hurdat_epa EP031993 21.9000 -108.700 TD 30 -1 9 349
1993178N14265 1993 37 EP MM NOT_NAMED 1993-07-01 09:00:00 TS 22.3425 -108.820 main 121 67 P_____________ EP031993 22.3425 -108.820 TD 30 -1 9 343
1993178N14265 1993 37 EP MM NOT_NAMED 1993-07-01 12:00:00 TS 22.8000 -109.000 30 hurdat_epa main 67 30 O_____________ hurdat_epa EP031993 22.8000 -109.000 TD 30 -1 10 338
1993178N14265 1993 37 EP MM NOT_NAMED 1993-07-01 15:00:00 TS 23.2574 -109.220 main 23 10 P_____________ EP031993 23.2574 -109.220 TD 27 -1 10 333
1993178N14265 1993 37 EP MM NOT_NAMED 1993-07-01 18:00:00 TS 23.7000 -109.500 25 hurdat_epa main 11 0 O_____________ hurdat_epa EP031993 23.7000 -109.500 TD 25 -1 10 327
1993178N14265 1993 37 EP MM NOT_NAMED 1993-07-01 21:00:00 TS 24.1102 -109.835 main 11 0 P_____________ EP031993 24.1102 -109.835 TD 22 -1 10 321
1993178N14265 1993 37 EP MM NOT_NAMED 1993-07-02 00:00:00 TS 24.5000 -110.200 20 hurdat_epa main 22 O_____________ hurdat_epa EP031993 24.5000 -110.200 TD 20 -1 10 319

About IBTrACS Database

This database is a web-friendly format of International Best Track Archive for Climate Stewardship (IBTrACS), a global best track data archive curated by NOAA dating back to 1842.

Updated: 2021-10-08